createdAt,value
2022-09-11T00:00:29.790Z,99196.47
2022-09-11T00:01:32.366Z,99201.19
2022-09-11T00:02:34.704Z,99200.38
2022-09-11T00:03:37.403Z,99202.25
2022-09-11T00:04:39.638Z,99189.78
2022-09-11T00:05:43.619Z,99202.06
2022-09-11T00:06:46.210Z,99190.06
2022-09-11T00:07:48.598Z,99199.88
2022-09-11T00:09:00.185Z,99185.59
2022-09-11T00:10:02.504Z,99185.59
2022-09-11T00:11:08.422Z,99193.94
2022-09-11T00:12:10.711Z,99188.06
2022-09-11T00:13:19.567Z,99192.91
2022-09-11T00:14:21.942Z,99196.00
2022-09-11T00:15:24.225Z,99195.06
2022-09-11T00:16:30.697Z,99189.38
2022-09-11T00:17:33.078Z,99193.94
2022-09-11T00:18:35.966Z,99196.31
2022-09-11T00:19:41.303Z,99199.50
2022-09-11T00:20:51.934Z,99202.06
2022-09-11T00:21:57.197Z,99201.59
2022-09-11T00:23:05.310Z,99190.50
2022-09-11T00:24:09.807Z,99200.91
2022-09-11T00:25:11.994Z,99200.91
2022-09-11T00:26:14.394Z,99201.97
2022-09-11T00:27:16.702Z,99201.22
2022-09-11T00:28:24.572Z,99200.25
2022-09-11T00:29:27.297Z,99204.50
2022-09-11T00:30:30.172Z,99211.03
2022-09-11T00:31:32.637Z,99200.19
2022-09-11T00:32:35.019Z,99203.47
2022-09-11T00:33:37.436Z,99204.25
2022-09-11T00:34:39.709Z,99200.53
2022-09-11T00:35:42.718Z,99208.19
2022-09-11T00:36:44.983Z,99207.34
2022-09-11T00:37:48.688Z,99195.16
2022-09-11T00:38:51.799Z,99201.22
2022-09-11T00:39:54.472Z,99203.19
2022-09-11T00:40:59.384Z,99210.47
2022-09-11T00:42:02.352Z,99204.72
2022-09-11T00:43:09.924Z,99202.81
2022-09-11T00:44:12.561Z,99198.28
2022-09-11T00:45:27.993Z,99196.19
2022-09-11T00:46:37.095Z,99204.97
2022-09-11T00:47:39.616Z,99198.47
2022-09-11T00:48:44.295Z,99203.09
2022-09-11T00:49:54.185Z,99203.38
2022-09-11T00:50:58.788Z,99203.00
2022-09-11T00:52:27.988Z,99205.66
2022-09-11T00:53:34.441Z,99205.66
2022-09-11T00:54:46.238Z,99195.66
2022-09-11T00:55:53.931Z,99202.44
2022-09-11T00:56:58.456Z,99201.28
2022-09-11T00:58:06.841Z,99209.31
2022-09-11T00:59:10.824Z,99199.22
2022-09-11T01:00:13.553Z,99192.16
2022-09-11T01:01:16.050Z,99203.75
2022-09-11T01:02:26.733Z,99205.53
2022-09-11T01:03:32.109Z,99196.09
2022-09-11T01:04:34.515Z,99196.94
2022-09-11T01:05:41.061Z,99206.97
2022-09-11T01:06:43.779Z,99200.44
2022-09-11T01:07:47.401Z,99196.41
2022-09-11T01:08:49.655Z,99203.19
2022-09-11T01:09:53.726Z,99194.22
2022-09-11T01:11:09.761Z,99196.19
2022-09-11T01:12:25.882Z,99197.25
2022-09-11T01:13:35.439Z,99203.00
2022-09-11T01:14:59.260Z,99204.50
2022-09-11T01:16:06.213Z,99200.63
2022-09-11T01:17:27.041Z,99200.16
2022-09-11T01:18:55.332Z,99207.44
2022-09-11T01:20:36.506Z,99198.06
2022-09-11T01:22:06.631Z,99192.31
2022-09-11T01:23:46.095Z,99193.94
2022-09-11T01:25:06.977Z,99194.78
2022-09-11T01:26:24.012Z,99193.56
2022-09-11T01:27:40.762Z,99193.94
2022-09-11T01:29:07.052Z,99192.31
2022-09-11T01:30:17.131Z,99199.59
2022-09-11T01:31:24.704Z,99197.81
2022-09-11T01:33:02.070Z,99200.53
2022-09-11T01:34:12.282Z,99200.81
2022-09-11T01:35:18.385Z,99201.97
2022-09-11T01:36:28.787Z,99201.88
2022-09-11T01:37:50.452Z,99191.38
2022-09-11T01:38:57.957Z,99195.94
2022-09-11T01:40:10.704Z,99195.25
2022-09-11T01:41:21.580Z,99202.50
2022-09-11T01:42:27.094Z,99203.28
2022-09-11T01:43:34.099Z,99203.75
2022-09-11T01:44:42.593Z,99205.94
2022-09-11T01:45:49.251Z,99202.81
2022-09-11T01:46:53.426Z,99206.28
2022-09-11T01:47:56.293Z,99209.22
2022-09-11T01:49:10.851Z,99201.69
2022-09-11T01:50:17.007Z,99209.22
2022-09-11T01:51:25.367Z,99206.97
2022-09-11T01:52:33.858Z,99211.50
2022-09-11T01:53:42.934Z,99213.13
2022-09-11T01:54:59.678Z,99216.63
2022-09-11T01:56:08.028Z,99213.50
2022-09-11T01:57:20.326Z,99216.78
2022-09-11T01:58:35.492Z,99217.56
2022-09-11T01:59:44.397Z,99222.84
2022-09-11T02:00:52.950Z,99227.47
2022-09-11T02:02:04.545Z,99215.09
2022-09-11T02:03:11.770Z,99218.47
2022-09-11T02:04:21.645Z,99205.66
2022-09-11T02:05:29.174Z,99220.66
2022-09-11T02:06:40.743Z,99221.69
2022-09-11T02:07:46.844Z,99215.38
2022-09-11T02:08:58.646Z,99223.88
2022-09-11T02:10:14.894Z,99214.91
2022-09-11T02:11:18.170Z,99212.72
2022-09-11T02:12:27.095Z,99224.81
2022-09-11T02:13:50.715Z,99214.91
2022-09-11T02:14:54.703Z,99208.00
2022-09-11T02:16:11.895Z,99218.75
2022-09-11T02:17:28.839Z,99219.53
2022-09-11T02:18:43.100Z,99220.84
2022-09-11T02:19:45.552Z,99215.09
2022-09-11T02:20:49.229Z,99218.09
2022-09-11T02:21:51.828Z,99219.81
2022-09-11T02:22:54.823Z,99226.69
2022-09-11T02:24:01.445Z,99225.00
2022-09-11T02:25:04.655Z,99221.13
2022-09-11T02:26:10.107Z,99232.47
2022-09-11T02:27:18.285Z,99222.25
2022-09-11T02:28:20.551Z,99234.47
2022-09-11T02:29:24.383Z,99220.94
2022-09-11T02:30:26.684Z,99228.59
2022-09-11T02:31:29.235Z,99225.50
2022-09-11T02:32:36.432Z,99226.69
2022-09-11T02:33:39.096Z,99223.50
2022-09-11T02:34:43.308Z,99214.16
2022-09-11T02:35:52.399Z,99225.41
2022-09-11T02:37:16.443Z,99219.63
2022-09-11T02:38:30.120Z,99218.69
2022-09-11T02:39:32.574Z,99217.47
2022-09-11T02:41:01.501Z,99221.44
2022-09-11T02:42:42.188Z,99226.16
2022-09-11T02:43:59.484Z,99225.75
2022-09-11T02:45:25.006Z,99216.22
2022-09-11T02:46:58.882Z,99223.22
2022-09-11T02:48:04.990Z,99217.16
2022-09-11T02:49:25.289Z,99229.00
2022-09-11T02:50:50.300Z,99229.00
2022-09-11T02:52:04.959Z,99223.97
2022-09-11T02:53:13.382Z,99213.09
2022-09-11T02:54:49.011Z,99223.13
2022-09-11T02:56:00.638Z,99232.09
2022-09-11T02:57:31.089Z,99226.91
2022-09-11T02:58:40.902Z,99217.09
2022-09-11T02:59:53.540Z,99217.16
2022-09-11T03:01:04.816Z,99228.69
2022-09-11T03:02:15.504Z,99220.66
2022-09-11T03:03:20.694Z,99215.28
2022-09-11T03:04:24.605Z,99211.22
2022-09-11T03:05:28.967Z,99219.06
2022-09-11T03:06:32.856Z,99224.72
2022-09-11T03:07:35.346Z,99218.47
2022-09-11T03:08:37.755Z,99213.38
2022-09-11T03:09:39.989Z,99213.19
2022-09-11T03:12:32.188Z,99208.09
2022-09-11T03:13:34.737Z,99211.59
2022-09-11T03:14:38.130Z,99220.09
2022-09-11T03:15:43.562Z,99219.81
2022-09-11T03:16:46.247Z,99213.03
2022-09-11T03:17:49.627Z,99226.69
2022-09-11T03:18:52.387Z,99220.75
2022-09-11T03:19:54.708Z,99213.78
2022-09-11T03:20:57.338Z,99222.16
2022-09-11T03:22:01.215Z,99233.81
2022-09-11T03:25:00.992Z,99222.53
2022-09-11T03:26:05.973Z,99224.34
2022-09-11T03:27:08.375Z,99224.16
2022-09-11T03:28:11.292Z,99225.41
2022-09-11T03:29:13.921Z,99228.19
2022-09-11T03:30:18.082Z,99228.78
2022-09-11T03:31:24.251Z,99229.81
2022-09-11T03:32:26.568Z,99226.31
2022-09-11T03:33:31.724Z,99235.47
2022-09-11T03:34:34.295Z,99231.91
2022-09-11T03:35:36.812Z,99221.34
2022-09-11T03:36:39.108Z,99229.16
2022-09-11T03:37:41.448Z,99225.56
2022-09-11T03:38:45.449Z,99230.28
2022-09-11T03:39:50.004Z,99220.97
2022-09-11T03:40:54.838Z,99227.56
2022-09-11T03:41:58.515Z,99223.03
2022-09-11T03:43:02.758Z,99220.09
2022-09-11T03:44:05.071Z,99227.09
2022-09-11T03:45:07.831Z,99218.88
2022-09-11T03:46:10.367Z,99217.84
2022-09-11T03:47:13.149Z,99220.47
2022-09-11T03:48:16.224Z,99207.53
2022-09-11T03:49:18.560Z,99212.72
2022-09-11T03:50:20.869Z,99222.94
2022-09-11T03:51:23.167Z,99222.84
2022-09-11T03:52:25.384Z,99228.97
2022-09-11T03:53:28.832Z,99226.63
2022-09-11T03:54:33.468Z,99222.84
2022-09-11T03:55:35.955Z,99235.47
2022-09-11T03:56:38.255Z,99226.50
2022-09-11T03:57:41.498Z,99234.84
2022-09-11T03:58:43.832Z,99233.06
2022-09-11T03:59:46.242Z,99229.91
2022-09-11T04:00:49.089Z,99225.28
2022-09-11T04:01:51.817Z,99226.31
2022-09-11T04:02:58.123Z,99236.06
2022-09-11T04:04:08.106Z,99232.28
2022-09-11T04:05:15.036Z,99234.22
2022-09-11T04:06:17.360Z,99233.16
2022-09-11T04:07:19.687Z,99233.72
2022-09-11T04:08:22.111Z,99245.34
2022-09-11T04:09:25.014Z,99240.88
2022-09-11T04:10:27.965Z,99236.44
2022-09-11T04:11:37.190Z,99243.13
2022-09-11T04:12:41.943Z,99236.59
2022-09-11T04:13:44.556Z,99236.34
2022-09-11T04:14:50.567Z,99237.84
2022-09-11T04:15:53.698Z,99240.91
2022-09-11T04:16:55.977Z,99243.44
2022-09-11T04:18:03.354Z,99241.97
2022-09-11T04:19:09.891Z,99233.16
2022-09-11T04:20:12.189Z,99257.72
2022-09-11T04:21:17.251Z,99247.03
2022-09-11T04:22:22.566Z,99256.78
2022-09-11T04:23:26.832Z,99256.22
2022-09-11T04:24:29.771Z,99256.03
2022-09-11T04:25:34.824Z,99258.97
2022-09-11T04:26:39.325Z,99260.56
2022-09-11T04:27:47.959Z,99256.19
2022-09-11T04:28:51.946Z,99260.75
2022-09-11T04:29:54.441Z,99249.69
2022-09-11T04:31:02.637Z,99246.22
2022-09-11T04:32:06.658Z,99260.47
2022-09-11T04:33:11.430Z,99249.91
2022-09-11T04:34:13.782Z,99244.84
2022-09-11T04:35:16.428Z,99255.84
2022-09-11T04:36:27.102Z,99254.59
2022-09-11T04:37:30.033Z,99251.19
2022-09-11T04:38:33.955Z,99264.81
2022-09-11T04:39:36.366Z,99263.88
2022-09-11T04:40:38.778Z,99272.19
2022-09-11T04:41:41.184Z,99277.28
2022-09-11T04:42:44.342Z,99264.72
2022-09-11T04:43:47.173Z,99267.34
2022-09-11T04:44:50.109Z,99278.63
2022-09-11T04:45:53.878Z,99279.84
2022-09-11T04:46:56.630Z,99274.66
2022-09-11T04:48:00.995Z,99287.75
2022-09-11T04:49:03.446Z,99291.34
2022-09-11T04:50:07.443Z,99280.13
2022-09-11T04:51:09.817Z,99289.19
2022-09-11T04:52:12.357Z,99291.75
2022-09-11T04:53:14.818Z,99287.19
2022-09-11T04:54:21.308Z,99295.81
2022-09-11T04:55:24.260Z,99298.34
2022-09-11T04:56:29.650Z,99295.13
2022-09-11T04:57:32.379Z,99301.09
2022-09-11T04:58:36.720Z,99304.34
2022-09-11T04:59:39.064Z,99298.91
2022-09-11T05:00:44.799Z,99289.47
2022-09-11T05:01:47.446Z,99301.38
2022-09-11T05:02:51.134Z,99309.13
2022-09-11T05:03:53.467Z,99307.53
2022-09-11T05:04:56.006Z,99306.50
2022-09-11T05:05:58.315Z,99310.00
2022-09-11T05:07:01.937Z,99315.75
2022-09-11T05:08:04.541Z,99312.44
2022-09-11T05:09:10.200Z,99310.38
2022-09-11T05:10:12.794Z,99316.22
2022-09-11T05:11:17.088Z,99312.34
2022-09-11T05:12:19.369Z,99312.53
2022-09-11T05:13:21.831Z,99310.00
2022-09-11T05:14:25.269Z,99303.66
2022-09-11T05:15:30.324Z,99313.78
2022-09-11T05:16:34.551Z,99318.31
2022-09-11T05:17:37.247Z,99310.06
2022-09-11T05:18:43.066Z,99313.88
2022-09-11T05:19:46.944Z,99310.75
2022-09-11T05:20:59.078Z,99307.22
2022-09-11T05:22:02.032Z,99314.91
2022-09-11T05:23:06.149Z,99301.22
2022-09-11T05:24:08.643Z,99316.69
2022-09-11T05:25:11.761Z,99318.28
2022-09-11T05:26:19.678Z,99311.13
2022-09-11T05:27:21.917Z,99320.28
2022-09-11T05:28:26.141Z,99329.19
2022-09-11T05:29:32.265Z,99327.84
2022-09-11T05:30:44.971Z,99322.19
2022-09-11T05:31:47.794Z,99322.16
2022-09-11T05:32:55.886Z,99323.13
2022-09-11T05:34:00.363Z,99326.63
2022-09-11T05:35:02.942Z,99328.97
2022-09-11T05:36:06.551Z,99333.03
2022-09-11T05:37:09.037Z,99328.13
2022-09-11T05:38:17.318Z,99337.50
2022-09-11T05:39:19.542Z,99337.19
2022-09-11T05:40:22.746Z,99340.06
2022-09-11T05:41:25.523Z,99337.31
2022-09-11T05:42:28.979Z,99337.59
2022-09-11T05:43:36.512Z,99342.69
2022-09-11T05:46:12.537Z,99335.22
2022-09-11T05:47:16.236Z,99345.31
2022-09-11T05:48:21.884Z,99345.69
2022-09-11T05:49:25.704Z,99355.16
2022-09-11T05:50:28.066Z,99356.97
2022-09-11T05:51:30.475Z,99362.16
2022-09-11T05:52:35.098Z,99354.88
2022-09-11T05:53:39.083Z,99357.16
2022-09-11T05:54:42.625Z,99370.47
2022-09-11T05:55:45.905Z,99366.38
2022-09-11T05:56:48.145Z,99373.97
2022-09-11T05:57:58.191Z,99374.09
2022-09-11T05:59:02.314Z,99382.03
2022-09-11T06:00:10.774Z,99383.78
2022-09-11T06:01:27.304Z,99377.66
2022-09-11T06:02:39.351Z,99394.09
2022-09-11T06:03:42.991Z,99393.38
2022-09-11T06:04:47.142Z,99398.16
2022-09-11T06:05:49.440Z,99394.13
2022-09-11T06:08:30.871Z,99396.94
2022-09-11T06:09:33.302Z,99399.59
2022-09-11T06:10:36.654Z,99401.88
2022-09-11T06:11:40.780Z,99406.81
2022-09-11T06:12:43.644Z,99402.69
2022-09-11T06:13:47.203Z,99398.25
2022-09-11T06:14:50.009Z,99413.06
2022-09-11T06:15:52.559Z,99404.16
2022-09-11T06:16:57.306Z,99417.00
2022-09-11T06:18:01.014Z,99423.63
2022-09-11T06:19:04.804Z,99420.78
2022-09-11T06:20:08.478Z,99414.72
2022-09-11T06:21:12.552Z,99418.13
2022-09-11T06:22:21.664Z,99424.03
2022-09-11T06:23:26.424Z,99415.66
2022-09-11T06:24:29.867Z,99431.97
2022-09-11T06:25:32.672Z,99433.47
2022-09-11T06:26:35.498Z,99430.81
2022-09-11T06:27:37.787Z,99435.75
2022-09-11T06:28:41.816Z,99427.81
2022-09-11T06:29:45.989Z,99417.84
2022-09-11T06:30:53.051Z,99427.03
2022-09-11T06:31:55.443Z,99434.06
2022-09-11T06:33:02.099Z,99436.59
2022-09-11T06:34:04.555Z,99434.88
2022-09-11T06:35:07.173Z,99436.41
2022-09-11T06:36:13.810Z,99425.91
2022-09-11T06:37:16.366Z,99431.13
2022-09-11T06:38:18.947Z,99433.09
2022-09-11T06:39:22.970Z,99433.88
2022-09-11T06:40:26.546Z,99415.38
2022-09-11T06:41:29.287Z,99422.59
2022-09-11T06:42:37.376Z,99422.88
2022-09-11T06:43:40.224Z,99430.91
2022-09-11T06:44:45.672Z,99436.41
2022-09-11T06:45:51.935Z,99443.69
2022-09-11T06:46:54.314Z,99436.31
2022-09-11T06:47:56.615Z,99435.94
2022-09-11T06:48:59.183Z,99438.28
2022-09-11T06:50:03.478Z,99439.53
2022-09-11T06:51:13.713Z,99438.31
2022-09-11T06:52:16.159Z,99430.59
2022-09-11T06:53:26.805Z,99444.44
2022-09-11T06:54:29.892Z,99442.38
2022-09-11T06:55:34.280Z,99434.97
2022-09-11T06:56:42.617Z,99437.81
2022-09-11T06:57:45.159Z,99444.19
2022-09-11T06:58:51.885Z,99441.19
2022-09-11T06:59:58.965Z,99443.13
2022-09-11T07:01:06.307Z,99444.97
2022-09-11T07:02:10.215Z,99453.44
2022-09-11T07:03:13.583Z,99445.84
2022-09-11T07:04:16.674Z,99454.50
2022-09-11T07:05:19.704Z,99440.69
2022-09-11T07:06:30.138Z,99466.81
2022-09-11T07:07:33.976Z,99461.88
2022-09-11T07:08:36.322Z,99451.50
2022-09-11T07:09:38.779Z,99458.16
2022-09-11T07:10:41.411Z,99465.47
2022-09-11T07:11:46.730Z,99456.47
2022-09-11T07:12:49.355Z,99459.56
2022-09-11T07:13:52.201Z,99462.41
2022-09-11T07:14:54.812Z,99458.91
2022-09-11T07:16:06.441Z,99467.63
2022-09-11T07:17:10.393Z,99469.28
2022-09-11T07:18:15.194Z,99463.81
2022-09-11T07:19:18.728Z,99461.59
2022-09-11T07:20:22.174Z,99471.94
2022-09-11T07:21:26.850Z,99468.50
2022-09-11T07:22:34.999Z,99467.78
2022-09-11T07:23:38.286Z,99462.56
2022-09-11T07:24:41.248Z,99467.97
2022-09-11T07:25:43.636Z,99471.81
2022-09-11T07:26:46.058Z,99473.41
2022-09-11T07:27:57.041Z,99474.03
2022-09-11T07:28:59.707Z,99479.25
2022-09-11T07:30:03.293Z,99484.34
2022-09-11T07:31:18.691Z,99494.69
2022-09-11T07:32:23.078Z,99485.41
2022-09-11T07:33:27.687Z,99486.28
2022-09-11T07:34:33.987Z,99499.34
2022-09-11T07:35:40.544Z,99503.63
2022-09-11T07:36:43.040Z,99506.13
2022-09-11T07:37:58.536Z,99509.34
2022-09-11T07:39:03.917Z,99515.91
2022-09-11T07:40:13.691Z,99504.25
2022-09-11T07:41:19.853Z,99516.03
2022-09-11T07:42:24.180Z,99509.72
2022-09-11T07:43:27.231Z,99514.16
2022-09-11T07:44:29.598Z,99513.94
2022-09-11T07:45:33.316Z,99513.41
2022-09-11T07:46:35.778Z,99509.09
2022-09-11T07:47:41.240Z,99522.50
2022-09-11T07:48:43.768Z,99522.09
2022-09-11T07:49:46.732Z,99520.88
2022-09-11T07:51:04.306Z,99522.72
2022-09-11T07:52:07.329Z,99523.31
2022-09-11T07:53:18.327Z,99521.03
2022-09-11T07:54:22.364Z,99534.09
2022-09-11T07:55:25.007Z,99535.09
2022-09-11T07:56:29.282Z,99536.38
2022-09-11T07:57:32.245Z,99533.59
2022-09-11T07:58:40.040Z,99540.50
2022-09-11T07:59:43.111Z,99533.63
2022-09-11T08:00:45.430Z,99536.31
2022-09-11T08:01:55.612Z,99553.69
2022-09-11T08:02:58.471Z,99555.38
2022-09-11T08:04:11.173Z,99553.66
2022-09-11T08:05:13.565Z,99552.84
2022-09-11T08:06:22.148Z,99550.63
2022-09-11T08:07:28.994Z,99549.19
2022-09-11T08:08:32.170Z,99556.34
2022-09-11T08:09:34.684Z,99557.66
2022-09-11T08:10:40.837Z,99553.38
2022-09-11T08:11:47.024Z,99559.09
2022-09-11T08:12:51.496Z,99573.72
2022-09-11T08:13:55.127Z,99571.13
2022-09-11T08:14:59.204Z,99571.28
2022-09-11T08:16:01.916Z,99557.53
2022-09-11T08:17:05.165Z,99568.34
2022-09-11T08:18:07.695Z,99565.84
2022-09-11T08:19:16.484Z,99567.66
2022-09-11T08:20:18.809Z,99566.41
2022-09-11T08:21:22.808Z,99570.38
2022-09-11T08:22:25.360Z,99571.78
2022-09-11T08:23:28.315Z,99580.22
2022-09-11T08:24:30.911Z,99575.13
2022-09-11T08:25:37.213Z,99572.16
2022-09-11T08:26:40.200Z,99580.75
2022-09-11T08:27:42.791Z,99579.09
2022-09-11T08:28:46.396Z,99587.81
2022-09-11T08:29:49.456Z,99580.44
2022-09-11T08:30:59.955Z,99589.13
2022-09-11T08:32:03.590Z,99588.66
2022-09-11T08:33:09.526Z,99583.69
2022-09-11T08:34:12.323Z,99585.63
2022-09-11T08:35:15.507Z,99585.88
2022-09-11T08:36:18.730Z,99589.28
2022-09-11T08:37:22.276Z,99593.34
2022-09-11T08:38:25.032Z,99586.34
2022-09-11T08:39:27.351Z,99594.94
2022-09-11T08:40:38.785Z,99593.09
2022-09-11T08:41:48.111Z,99588.84
2022-09-11T08:42:52.676Z,99598.16
2022-09-11T08:43:59.239Z,99596.97
2022-09-11T08:45:03.076Z,99588.97
2022-09-11T08:46:12.507Z,99584.78
2022-09-11T08:47:36.604Z,99585.00
2022-09-11T08:48:57.564Z,99600.41
2022-09-11T08:50:19.089Z,99587.53
2022-09-11T08:51:21.443Z,99597.44
2022-09-11T08:52:25.708Z,99606.50
2022-09-11T08:53:32.574Z,99602.03
2022-09-11T08:54:38.073Z,99603.84
2022-09-11T08:55:48.954Z,99599.63
2022-09-11T08:57:23.737Z,99602.28
2022-09-11T08:58:32.661Z,99603.94
2022-09-11T08:59:42.059Z,99608.59
2022-09-11T09:00:54.944Z,99602.91
2022-09-11T09:02:24.484Z,99603.31
2022-09-11T09:03:33.502Z,99606.53
2022-09-11T09:04:48.098Z,99602.72
2022-09-11T09:06:09.300Z,99612.47
2022-09-11T09:07:28.395Z,99606.56
2022-09-11T09:08:58.237Z,99625.25
2022-09-11T09:10:16.021Z,99615.81
2022-09-11T09:11:36.747Z,99616.16
2022-09-11T09:12:51.522Z,99618.50
2022-09-11T09:13:54.408Z,99616.94
2022-09-11T09:15:17.700Z,99629.91
2022-09-11T09:16:25.840Z,99620.06
2022-09-11T09:17:49.147Z,99624.78
2022-09-11T09:19:00.754Z,99617.38
2022-09-11T09:20:16.483Z,99618.88
2022-09-11T09:21:25.348Z,99627.63
2022-09-11T09:23:06.297Z,99620.44
2022-09-11T09:24:19.520Z,99611.41
2022-09-11T09:25:26.581Z,99628.19
2022-09-11T09:26:39.926Z,99615.88
2022-09-11T09:28:00.457Z,99606.91
2022-09-11T09:29:09.466Z,99611.25
2022-09-11T09:30:27.586Z,99610.59
2022-09-11T09:31:33.754Z,99612.44
2022-09-11T09:32:43.819Z,99611.91
2022-09-11T09:34:04.592Z,99613.97
2022-09-11T09:35:16.807Z,99605.34
2022-09-11T09:36:31.252Z,99621.75
2022-09-11T09:37:35.185Z,99616.63
2022-09-11T09:38:37.520Z,99622.88
2022-09-11T09:39:40.124Z,99617.59
2022-09-11T09:41:07.328Z,99632.69
2022-09-11T09:42:42.883Z,99620.53
2022-09-11T09:43:52.110Z,99609.72
2022-09-11T09:45:02.609Z,99615.19
2022-09-11T09:46:22.840Z,99609.63
2022-09-11T09:47:26.737Z,99614.88
2022-09-11T09:48:34.259Z,99615.25
2022-09-11T09:49:37.480Z,99609.13
2022-09-11T09:50:43.991Z,99615.72
2022-09-11T09:51:46.775Z,99611.09
2022-09-11T09:52:54.011Z,99614.59
2022-09-11T09:54:01.172Z,99609.56
2022-09-11T09:55:12.349Z,99604.88
2022-09-11T09:56:18.913Z,99604.66
2022-09-11T09:57:25.344Z,99616.00
2022-09-11T09:58:37.086Z,99614.22
2022-09-11T09:59:49.680Z,99613.03
2022-09-11T10:00:52.417Z,99610.97
2022-09-11T10:01:55.189Z,99619.03
2022-09-11T10:02:58.092Z,99613.19
2022-09-11T10:04:12.975Z,99620.69
2022-09-11T10:05:31.785Z,99629.81
2022-09-11T10:06:34.002Z,99617.78
2022-09-11T10:07:36.989Z,99618.28
2022-09-11T10:08:39.306Z,99622.47
2022-09-11T10:09:46.758Z,99625.41
2022-09-11T10:10:58.062Z,99628.56
2022-09-11T10:12:08.896Z,99609.34
2022-09-11T10:13:20.997Z,99621.03
2022-09-11T10:14:49.157Z,99613.72
2022-09-11T10:15:48.860Z,99613.75
2022-09-11T10:16:53.759Z,99618.59
2022-09-11T10:18:21.946Z,99612.59
2022-09-11T10:19:43.344Z,99622.97
2022-09-11T10:20:45.707Z,99616.25
2022-09-11T10:21:47.960Z,99608.84
2022-09-11T10:22:51.630Z,99618.91
2022-09-11T10:24:02.777Z,99610.56
2022-09-11T10:25:11.446Z,99616.44
2022-09-11T10:26:26.665Z,99618.69
2022-09-11T10:27:33.362Z,99615.69
2022-09-11T10:28:36.756Z,99616.19
2022-09-11T10:29:50.165Z,99617.13
2022-09-11T10:30:53.270Z,99610.25
2022-09-11T10:32:02.395Z,99612.41
2022-09-11T10:33:16.584Z,99607.44
2022-09-11T10:34:21.086Z,99609.88
2022-09-11T10:35:27.106Z,99617.75
2022-09-11T10:36:30.134Z,99612.88
2022-09-11T10:37:34.178Z,99602.50
2022-09-11T10:38:45.300Z,99611.78
2022-09-11T10:39:49.198Z,99608.91
2022-09-11T10:41:14.708Z,99613.28
2022-09-11T10:42:23.359Z,99611.13
2022-09-11T10:43:36.314Z,99610.09
2022-09-11T10:44:43.248Z,99616.34
2022-09-11T10:46:06.518Z,99610.84
2022-09-11T10:47:24.999Z,99620.56
2022-09-11T10:48:27.297Z,99619.41
2022-09-11T10:49:29.521Z,99610.72
2022-09-11T10:50:34.270Z,99617.06
2022-09-11T10:51:45.435Z,99624.16
2022-09-11T10:52:58.387Z,99625.00
2022-09-11T10:54:17.138Z,99622.41
2022-09-11T10:55:20.685Z,99621.53
2022-09-11T10:56:24.289Z,99620.19
2022-09-11T10:57:55.048Z,99621.03
2022-09-11T10:59:04.679Z,99617.25
2022-09-11T11:00:27.856Z,99620.72
2022-09-11T11:01:30.383Z,99614.13
2022-09-11T11:02:35.091Z,99611.75
2022-09-11T11:03:38.065Z,99610.44
2022-09-11T11:04:40.276Z,99616.19
2022-09-11T11:06:10.148Z,99619.75
2022-09-11T11:07:32.143Z,99624.78
2022-09-11T11:09:05.322Z,99626.84
2022-09-11T11:10:26.998Z,99621.22
2022-09-11T11:11:32.495Z,99623.81
2022-09-11T11:13:04.929Z,99625.16
2022-09-11T11:14:27.063Z,99625.25
2022-09-11T11:15:34.650Z,99616.31
2022-09-11T11:17:18.230Z,99617.75
2022-09-11T11:18:50.098Z,99617.63
2022-09-11T11:20:07.567Z,99615.63
2022-09-11T11:21:38.099Z,99630.13
2022-09-11T11:22:59.307Z,99625.19
2022-09-11T11:24:22.178Z,99621.09
2022-09-11T11:25:38.408Z,99625.78
2022-09-11T11:26:48.062Z,99632.25
2022-09-11T11:28:00.323Z,99625.69
2022-09-11T11:29:27.097Z,99620.78
2022-09-11T11:30:37.849Z,99628.84
2022-09-11T11:32:10.512Z,99624.09
2022-09-11T11:33:45.360Z,99621.91
2022-09-11T11:35:01.285Z,99626.81
2022-09-11T11:36:07.038Z,99616.78
2022-09-11T11:37:36.093Z,99628.59
2022-09-11T11:38:46.204Z,99623.06
2022-09-11T11:39:59.240Z,99628.38
2022-09-11T11:41:12.674Z,99629.81
2022-09-11T11:42:25.850Z,99620.44
2022-09-11T11:43:32.317Z,99637.28
2022-09-11T11:44:48.302Z,99635.09
2022-09-11T11:46:15.667Z,99629.25
2022-09-11T11:47:25.271Z,99628.06
2022-09-11T11:48:37.159Z,99627.38
2022-09-11T11:49:51.080Z,99626.47
2022-09-11T11:50:57.800Z,99621.06
2022-09-11T11:52:13.180Z,99616.50
2022-09-11T11:53:35.506Z,99625.53
2022-09-11T11:54:47.742Z,99623.75
2022-09-11T11:56:29.933Z,99626.91
2022-09-11T11:57:38.565Z,99624.41
2022-09-11T11:58:50.024Z,99629.81
2022-09-11T12:00:01.501Z,99624.66
2022-09-11T12:01:30.239Z,99627.66
2022-09-11T12:02:45.364Z,99623.69
2022-09-11T12:04:04.517Z,99629.88
2022-09-11T12:05:29.760Z,99622.09
2022-09-11T12:06:31.950Z,99625.19
2022-09-11T12:07:39.408Z,99623.78
2022-09-11T12:08:46.128Z,99627.50
2022-09-11T12:09:50.500Z,99621.25
2022-09-11T12:11:07.810Z,99620.25
2022-09-11T12:12:11.567Z,99627.63
2022-09-11T12:13:20.081Z,99615.09
2022-09-11T12:14:27.670Z,99618.81
2022-09-11T12:15:33.628Z,99625.84
2022-09-11T12:16:36.451Z,99619.50
2022-09-11T12:17:40.209Z,99619.84
2022-09-11T12:19:20.220Z,99616.13
2022-09-11T12:20:33.787Z,99626.06
2022-09-11T12:21:42.104Z,99617.59
2022-09-11T12:22:49.702Z,99618.69
2022-09-11T12:23:57.664Z,99622.72
2022-09-11T12:24:59.991Z,99627.53
2022-09-11T12:26:05.062Z,99630.19
2022-09-11T12:27:34.411Z,99632.03
2022-09-11T12:28:37.867Z,99624.59
2022-09-11T12:29:40.050Z,99618.53
2022-09-11T12:31:03.088Z,99620.78
2022-09-11T12:32:19.126Z,99628.97
2022-09-11T12:33:47.122Z,99623.81
2022-09-11T12:34:49.500Z,99625.28
2022-09-11T12:35:53.357Z,99619.06
2022-09-11T12:37:04.024Z,99623.56
2022-09-11T12:38:06.190Z,99627.34
2022-09-11T12:39:24.068Z,99625.16
2022-09-11T12:40:52.751Z,99622.97
2022-09-11T12:42:23.691Z,99623.91
2022-09-11T12:43:53.667Z,99621.00
2022-09-11T12:44:59.502Z,99613.75
2022-09-11T12:46:09.072Z,99627.69
2022-09-11T12:47:23.295Z,99625.78
2022-09-11T12:48:42.670Z,99601.28
2022-09-11T12:49:54.448Z,99615.34
2022-09-11T12:50:57.946Z,99616.59
2022-09-11T12:52:01.482Z,99619.00
2022-09-11T12:53:08.818Z,99609.66
2022-09-11T12:54:33.502Z,99603.38
2022-09-11T12:55:39.793Z,99604.38
2022-09-11T12:57:20.217Z,99605.25
2022-09-11T12:58:47.724Z,99600.75
2022-09-11T12:59:59.337Z,99597.06
2022-09-11T13:01:15.491Z,99604.47
2022-09-11T13:02:36.002Z,99606.56
2022-09-11T13:03:49.642Z,99600.59
2022-09-11T13:04:53.654Z,99601.31
2022-09-11T13:06:03.138Z,99600.66
2022-09-11T13:07:07.393Z,99607.53
2022-09-11T13:08:18.972Z,99610.56
2022-09-11T13:09:31.681Z,99609.75
2022-09-11T13:10:37.132Z,99607.44
2022-09-11T13:12:18.816Z,99603.19
2022-09-11T13:13:34.505Z,99613.50
2022-09-11T13:14:36.709Z,99608.25
2022-09-11T13:15:42.213Z,99602.56
2022-09-11T13:16:44.849Z,99602.56
2022-09-11T13:17:47.174Z,99608.22
2022-09-11T13:18:49.600Z,99595.31
2022-09-11T13:19:54.155Z,99599.31
2022-09-11T13:20:58.817Z,99600.25
2022-09-11T13:22:01.568Z,99601.94
2022-09-11T13:23:18.452Z,99593.41
2022-09-11T13:24:32.265Z,99595.88
2022-09-11T13:25:40.672Z,99596.97
2022-09-11T13:26:42.981Z,99603.19
2022-09-11T13:27:51.450Z,99597.19
2022-09-11T13:28:56.538Z,99592.03
2022-09-11T13:30:01.417Z,99577.88
2022-09-11T13:31:05.081Z,99593.50